Time;durP1;ratioP1;P1;durP2;ratioP2;P2;SDS_P1;SDS_P2;PMS_P1;PMS_P2;Temp;Humidity;BMP_temperature;BMP_pressure;BME280_temperature;BME280_humidity;BME280_pressure;Samples;Min_cycle;Max_cycle;Signal;HPM_P1;HPM_P2
2021/08/17 00:00:42;;;;;;;5.43;2.40;;;;;;;11.18;100.00;96377.41;5058707;28;20728;-78
2021/08/17 00:03:09;;;;;;;6.70;2.37;;;;;;;11.19;100.00;96373.78;5064223;28;20028;-78
2021/08/17 00:05:37;;;;;;;4.73;2.37;;;;;;;11.32;100.00;96383.84;5061338;28;20028;-78
2021/08/17 00:08:03;;;;;;;6.57;3.63;;;;;;;11.24;100.00;96382.03;5069790;28;20024;-78
2021/08/17 00:10:29;;;;;;;4.93;2.00;;;;;;;11.20;100.00;96385.13;5057133;28;20058;-78
2021/08/17 00:12:55;;;;;;;5.47;2.40;;;;;;;11.11;100.00;96388.72;5070907;28;20046;-78
2021/08/17 00:15:21;;;;;;;4.93;2.00;;;;;;;11.19;100.00;96389.56;5061671;28;20556;-78
2021/08/17 00:17:46;;;;;;;5.07;2.17;;;;;;;11.18;100.00;96392.38;5052399;28;20151;-78
2021/08/17 00:20:13;;;;;;;6.67;2.37;;;;;;;11.04;100.00;96397.25;5061395;28;20127;-78
2021/08/17 00:22:39;;;;;;;4.63;2.77;;;;;;;11.17;100.00;96391.56;5076821;28;20120;-78
2021/08/17 00:25:06;;;;;;;4.53;2.40;;;;;;;11.16;100.00;96394.31;5060824;28;20048;-78
2021/08/17 00:27:32;;;;;;;5.20;2.70;;;;;;;11.17;100.00;96383.66;5056756;28;20471;-78
2021/08/17 00:29:58;;;;;;;5.43;2.57;;;;;;;11.13;100.00;96389.38;5051493;28;20040;-78
2021/08/17 00:32:24;;;;;;;4.50;2.10;;;;;;;10.99;100.00;96394.25;5059965;28;20036;-78
2021/08/17 00:34:50;;;;;;;6.03;2.60;;;;;;;11.04;100.00;96378.84;5068976;28;20031;-78
2021/08/17 00:37:17;;;;;;;6.23;2.53;;;;;;;11.01;100.00;96384.41;5073743;28;20017;-79
2021/08/17 00:39:43;;;;;;;6.87;3.23;;;;;;;11.00;100.00;96384.56;5117419;28;20040;-78
2021/08/17 00:42:09;;;;;;;6.37;2.60;;;;;;;10.94;100.00;96386.03;5061417;28;20525;-78
2021/08/17 00:44:35;;;;;;;4.97;2.37;;;;;;;11.09;100.00;96387.06;5084467;28;20085;-78
2021/08/17 00:47:01;;;;;;;4.97;2.30;;;;;;;10.93;100.00;96394.91;5071904;28;20051;-78
2021/08/17 00:49:28;;;;;;;6.40;2.60;;;;;;;10.98;100.00;96402.31;5060632;28;20040;-78
2021/08/17 00:51:55;;;;;;;4.70;2.33;;;;;;;11.00;100.00;96403.81;5071093;28;20129;-78
2021/08/17 00:54:25;;;;;;;7.00;3.10;;;;;;;10.88;100.00;96402.44;5081948;28;20032;-78
2021/08/17 00:56:59;;;;;;;5.20;2.67;;;;;;;10.89;100.00;96414.59;5083547;28;20024;-78
2021/08/17 00:59:30;;;;;;;5.93;2.70;;;;;;;10.84;100.00;96412.44;5063759;28;20040;-78
2021/08/17 01:01:56;;;;;;;5.70;2.53;;;;;;;10.89;100.00;96419.03;5074004;28;20727;-78
2021/08/17 01:04:22;;;;;;;5.70;2.80;;;;;;;10.91;100.00;96412.66;5084149;28;20044;-78
2021/08/17 01:06:48;;;;;;;5.60;3.10;;;;;;;10.91;100.00;96417.09;5061428;28;20021;-79
2021/08/17 01:09:14;;;;;;;6.20;2.63;;;;;;;10.87;100.00;96421.03;5061041;28;20036;-78
2021/08/17 01:11:45;;;;;;;5.37;3.00;;;;;;;10.96;100.00;96423.50;5076513;28;20036;-78
2021/08/17 01:14:12;;;;;;;5.93;2.73;;;;;;;10.95;100.00;96428.94;5080665;28;20063;-78
2021/08/17 01:16:38;;;;;;;6.33;3.00;;;;;;;10.95;100.00;96439.47;5084016;28;20043;-78
2021/08/17 01:19:04;;;;;;;6.33;3.00;;;;;;;10.92;100.00;96435.34;5067871;28;20036;-78
2021/08/17 01:21:31;;;;;;;5.53;2.90;;;;;;;10.95;100.00;96439.47;5080504;28;20034;-77
2021/08/17 01:23:57;;;;;;;7.37;3.23;;;;;;;10.92;100.00;96440.59;5086528;28;20631;-78
2021/08/17 01:26:23;;;;;;;6.03;3.03;;;;;;;11.00;100.00;96443.28;5082999;28;20036;-78
2021/08/17 01:28:48;;;;;;;6.33;3.07;;;;;;;11.00;100.00;96439.81;5081267;28;20035;-78
2021/08/17 01:31:14;;;;;;;7.37;3.17;;;;;;;11.00;100.00;96442.44;5083955;28;20086;-78
2021/08/17 01:33:40;;;;;;;8.10;4.30;;;;;;;10.92;100.00;96440.59;5076704;28;20067;-78
2021/08/17 01:36:05;;;;;;;6.80;3.40;;;;;;;10.89;100.00;96440.09;5066063;28;20035;-78
2021/08/17 01:38:31;;;;;;;8.40;3.90;;;;;;;10.99;100.00;96452.16;5055221;28;20041;-78
2021/08/17 01:40:57;;;;;;;9.33;4.27;;;;;;;10.96;100.00;96456.91;5083412;28;20351;-78
2021/08/17 01:43:22;;;;;;;8.30;4.47;;;;;;;10.98;100.00;96458.41;5081818;28;20079;-77
2021/08/17 01:45:58;;;;;;;9.37;4.17;;;;;;;10.98;100.00;96455.78;5080141;28;20036;-78
2021/08/17 01:48:28;;;;;;;9.83;4.70;;;;;;;11.06;100.00;96463.69;5070576;28;20016;-78
2021/08/17 01:50:54;;;;;;;9.93;4.43;;;;;;;11.14;100.00;96470.00;5071308;28;20024;-78
2021/08/17 01:53:22;;;;;;;9.80;4.90;;;;;;;11.01;100.00;96468.63;5079430;28;20039;-78
2021/08/17 01:55:47;;;;;;;11.00;5.40;;;;;;;10.92;100.00;96464.28;5078640;28;20050;-78
2021/08/17 01:58:13;;;;;;;10.57;5.33;;;;;;;11.12;100.00;96464.06;5054322;28;20020;-78
2021/08/17 02:00:39;;;;;;;10.67;5.07;;;;;;;10.96;100.00;96462.97;5070302;28;20067;-78
2021/08/17 02:03:04;;;;;;;9.17;4.73;;;;;;;10.98;100.00;96463.66;5079168;28;20074;-78
2021/08/17 02:05:30;;;;;;;8.07;4.53;;;;;;;10.93;100.00;96451.94;5065544;28;20580;-78
2021/08/17 02:07:56;;;;;;;10.43;5.33;;;;;;;10.83;100.00;96460.78;5072008;28;20024;-78
2021/08/17 02:10:22;;;;;;;12.27;5.67;;;;;;;10.79;100.00;96455.97;5080637;28;20028;-78
2021/08/17 02:12:48;;;;;;;9.40;5.90;;;;;;;10.61;100.00;96459.50;5071114;28;20033;-78
2021/08/17 02:15:13;;;;;;;10.77;5.33;;;;;;;10.53;100.00;96459.44;5083099;28;20036;-78
2021/08/17 02:17:39;;;;;;;10.17;6.07;;;;;;;10.49;100.00;96470.41;5063283;28;20043;-78
2021/08/17 02:20:05;;;;;;;11.60;5.63;;;;;;;10.52;100.00;96491.13;5071405;28;20037;-78
2021/08/17 02:22:31;;;;;;;10.33;5.60;;;;;;;10.51;100.00;96484.22;5064700;28;20101;-78
2021/08/17 02:24:56;;;;;;;10.77;5.63;;;;;;;10.59;100.00;96481.66;5060034;28;20484;-78
2021/08/17 02:27:22;;;;;;;12.87;6.57;;;;;;;10.42;100.00;96485.13;5082640;28;20024;-78
2021/08/17 02:29:48;;;;;;;11.77;6.73;;;;;;;10.42;100.00;96487.78;5077760;28;20113;-78
2021/08/17 02:32:13;;;;;;;11.63;6.53;;;;;;;10.46;100.00;96487.34;5066045;28;20090;-78
2021/08/17 02:34:39;;;;;;;14.77;7.13;;;;;;;10.35;100.00;96483.09;5063495;28;20032;-78
2021/08/17 02:37:05;;;;;;;12.37;6.00;;;;;;;10.30;100.00;96484.56;5060254;28;20039;-78
2021/08/17 02:39:31;;;;;;;11.80;6.50;;;;;;;10.18;100.00;96488.34;5073352;28;20040;-78
2021/08/17 02:41:56;;;;;;;12.03;6.70;;;;;;;10.27;100.00;96487.50;5073750;28;20032;-78
2021/08/17 02:44:22;;;;;;;13.30;7.03;;;;;;;10.27;100.00;96495.38;5059915;28;20036;-78
2021/08/17 02:46:48;;;;;;;12.00;6.57;;;;;;;10.33;100.00;96492.97;5073579;28;20115;-78
2021/08/17 02:49:14;;;;;;;12.53;6.93;;;;;;;10.14;100.00;96499.16;5078188;28;20029;-77
2021/08/17 02:51:39;;;;;;;12.73;7.00;;;;;;;10.06;100.00;96500.88;5057092;28;20032;-78
2021/08/17 02:54:05;;;;;;;15.27;7.40;;;;;;;9.99;100.00;96499.81;5065231;28;20028;-77
2021/08/17 02:56:31;;;;;;;13.27;7.40;;;;;;;10.10;100.00;96502.25;5065636;28;20460;-77
2021/08/17 02:58:57;;;;;;;12.93;6.70;;;;;;;10.00;100.00;96502.31;5058523;28;20111;-78
2021/08/17 03:01:22;;;;;;;12.10;7.23;;;;;;;9.82;100.00;96506.72;5078162;28;20101;-77
2021/08/17 03:03:48;;;;;;;14.10;7.03;;;;;;;9.85;100.00;96498.53;5078834;28;20470;-78
2021/08/17 03:06:14;;;;;;;12.63;6.83;;;;;;;9.82;100.00;96499.66;5074488;28;20094;-77
2021/08/17 03:08:41;;;;;;;14.43;7.43;;;;;;;9.60;100.00;96505.34;5088586;28;20050;-77
2021/08/17 03:11:06;;;;;;;14.03;7.00;;;;;;;9.40;100.00;96504.59;5099902;28;20093;-77
2021/08/17 03:13:32;;;;;;;14.67;7.13;;;;;;;9.34;100.00;96505.16;5066375;28;20036;-78
2021/08/17 03:15:58;;;;;;;13.47;6.73;;;;;;;9.38;100.00;96514.41;5071788;28;20025;-77
2021/08/17 03:18:23;;;;;;;12.77;6.83;;;;;;;9.36;100.00;96513.75;5065617;28;20146;-77
2021/08/17 03:20:50;;;;;;;16.93;7.10;;;;;;;9.44;100.00;96517.28;5060955;28;20032;-77
2021/08/17 03:23:17;;;;;;;15.37;6.90;;;;;;;9.31;100.00;96523.81;5072214;28;20040;-76
2021/08/17 03:25:43;;;;;;;12.67;6.93;;;;;;;9.38;100.00;96530.97;5074753;28;20444;-77
2021/08/17 03:28:09;;;;;;;14.23;7.83;;;;;;;9.32;100.00;96533.34;5061891;28;20653;-77
2021/08/17 03:30:36;;;;;;;13.70;6.70;;;;;;;9.31;100.00;96526.44;5068084;28;20107;-78
2021/08/17 03:33:03;;;;;;;11.97;5.63;;;;;;;9.20;100.00;96528.28;5073267;28;20035;-77
2021/08/17 03:35:28;;;;;;;13.20;6.33;;;;;;;9.20;100.00;96533.53;5060933;28;20060;-77
2021/08/17 03:37:54;;;;;;;12.93;6.37;;;;;;;9.11;100.00;96531.75;5070496;28;20441;-77
2021/08/17 03:40:22;;;;;;;13.93;6.80;;;;;;;9.10;100.00;96529.28;5061891;28;20109;-77
2021/08/17 03:42:48;;;;;;;16.90;7.67;;;;;;;9.12;100.00;96533.44;5065314;28;20016;-77
2021/08/17 03:45:16;;;;;;;14.37;6.57;;;;;;;9.06;100.00;96534.00;5060737;28;20036;-77
2021/08/17 03:47:43;;;;;;;14.63;6.40;;;;;;;9.05;100.00;96542.00;5072335;28;20040;-77
2021/08/17 03:50:11;;;;;;;13.63;7.13;;;;;;;9.06;100.00;96547.13;5064745;28;20042;-77
2021/08/17 03:52:37;;;;;;;11.93;6.93;;;;;;;8.99;100.00;96540.78;5074871;28;20105;-77
2021/08/17 03:55:04;;;;;;;11.17;5.77;;;;;;;8.99;100.00;96543.41;5072923;28;20028;-79
2021/08/17 03:57:30;;;;;;;15.33;6.50;;;;;;;8.98;100.00;96542.56;5082088;28;20032;-78
2021/08/17 03:59:55;;;;;;;12.80;6.27;;;;;;;8.93;100.00;96549.22;5072094;28;20043;-78
2021/08/17 04:02:21;;;;;;;12.57;5.83;;;;;;;8.87;100.00;96541.91;5053358;28;20040;-77
2021/08/17 04:04:48;;;;;;;14.73;6.50;;;;;;;8.94;100.00;96558.72;5072740;28;20390;-78
2021/08/17 04:07:14;;;;;;;12.17;5.97;;;;;;;8.86;100.00;96561.25;5051469;28;20067;-77
2021/08/17 04:09:39;;;;;;;13.00;6.50;;;;;;;8.94;100.00;96550.88;5076215;28;20145;-77
2021/08/17 04:12:06;;;;;;;15.07;6.23;;;;;;;8.87;100.00;96552.41;5052357;28;20025;-77
2021/08/17 04:14:31;;;;;;;14.73;6.03;;;;;;;8.86;100.00;96556.81;5066678;28;20047;-78
2021/08/17 04:16:58;;;;;;;16.23;6.37;;;;;;;8.83;100.00;96551.03;5045220;28;20036;-77
2021/08/17 04:19:25;;;;;;;12.77;6.93;;;;;;;9.04;100.00;96559.53;5066006;28;20161;-78
2021/08/17 04:21:51;;;;;;;11.30;5.90;;;;;;;8.80;100.00;96561.81;5054486;28;20036;-78
2021/08/17 04:24:18;;;;;;;15.77;6.83;;;;;;;8.79;100.00;96568.03;5058614;28;20074;-77
2021/08/17 04:26:43;;;;;;;15.07;7.17;;;;;;;8.88;100.00;96569.78;5072596;28;20401;-77
2021/08/17 04:29:10;;;;;;;12.60;5.57;;;;;;;8.84;100.00;96576.28;5053640;28;20033;-77
2021/08/17 04:31:36;;;;;;;15.03;6.17;;;;;;;8.82;100.00;96573.81;5067670;28;20087;-77
2021/08/17 04:34:02;;;;;;;13.53;6.13;;;;;;;8.78;100.00;96577.66;5067250;28;20448;-78
2021/08/17 04:36:28;;;;;;;12.50;6.37;;;;;;;8.87;100.00;96579.44;5068505;28;20040;-79
2021/08/17 04:38:54;;;;;;;17.27;6.90;;;;;;;8.86;100.00;96580.44;5057952;28;20016;-78
2021/08/17 04:41:20;;;;;;;16.97;8.60;;;;;;;8.79;100.00;96583.75;5073546;28;20024;-78
2021/08/17 04:43:46;;;;;;;13.03;6.80;;;;;;;8.79;100.00;96589.00;5071869;28;20036;-78
2021/08/17 04:46:13;;;;;;;16.00;7.40;;;;;;;8.83;100.00;96585.13;5063049;28;20033;-78
2021/08/17 04:48:39;;;;;;;15.13;7.57;;;;;;;8.82;100.00;96599.19;5063463;28;20017;-78
2021/08/17 04:51:04;;;;;;;16.47;8.20;;;;;;;8.83;100.00;96590.38;5059819;28;20035;-78
2021/08/17 04:53:30;;;;;;;16.50;8.43;;;;;;;8.94;100.00;96593.66;5072579;28;20398;-78
2021/08/17 04:55:56;;;;;;;18.23;8.33;;;;;;;9.13;100.00;96587.56;5073737;28;20024;-78
2021/08/17 04:58:22;;;;;;;14.83;8.13;;;;;;;9.32;100.00;96580.59;5081494;28;20867;-77
2021/08/17 05:00:48;;;;;;;14.70;8.07;;;;;;;9.34;100.00;96583.91;5064607;28;20036;-78
2021/08/17 05:03:14;;;;;;;17.00;8.33;;;;;;;9.47;100.00;96579.16;5082713;28;20040;-78
2021/08/17 05:05:40;;;;;;;14.83;7.80;;;;;;;9.52;100.00;96578.72;5080102;28;20028;-78
2021/08/17 05:08:07;;;;;;;15.53;8.03;;;;;;;9.51;100.00;96584.97;5079508;28;20039;-78
2021/08/17 05:10:33;;;;;;;18.20;8.97;;;;;;;9.65;100.00;96584.47;5054225;28;20025;-78
2021/08/17 05:13:00;;;;;;;15.47;8.03;;;;;;;9.90;100.00;96585.63;5059432;28;20024;-78
2021/08/17 05:15:26;;;;;;;16.43;9.20;;;;;;;9.90;100.00;96591.69;5075728;28;20035;-78
2021/08/17 05:17:52;;;;;;;13.40;7.90;;;;;;;9.99;100.00;96591.78;5065013;28;20106;-78
2021/08/17 05:20:18;;;;;;;13.57;7.33;;;;;;;9.94;100.00;96592.22;5055940;28;20035;-78
2021/08/17 05:22:44;;;;;;;16.87;8.10;;;;;;;10.03;100.00;96595.78;5061349;28;20036;-78
2021/08/17 05:25:11;;;;;;;14.47;7.37;;;;;;;10.08;100.00;96602.25;5067646;28;20028;-78
2021/08/17 05:27:37;;;;;;;14.87;8.10;;;;;;;10.14;100.00;96593.78;5062834;28;20060;-78
2021/08/17 05:30:05;;;;;;;14.90;7.87;;;;;;;10.48;100.00;96594.97;5067086;28;20447;-78
2021/08/17 05:32:31;;;;;;;14.20;8.20;;;;;;;10.76;100.00;96601.78;5069215;28;20038;-78
2021/08/17 05:34:56;;;;;;;14.47;7.53;;;;;;;11.12;100.00;96603.56;5075351;28;20028;-79
2021/08/17 05:37:22;;;;;;;12.57;7.13;;;;;;;11.35;100.00;96603.91;5082719;28;20037;-78
2021/08/17 05:39:48;;;;;;;14.53;7.57;;;;;;;11.20;100.00;96608.88;5094543;28;20039;-77
2021/08/17 05:42:13;;;;;;;9.93;6.30;;;;;;;10.91;100.00;96617.06;5066194;28;20137;-78
2021/08/17 05:44:41;;;;;;;15.10;7.37;;;;;;;10.78;100.00;96612.19;5081869;28;20069;-78
2021/08/17 05:47:07;;;;;;;12.67;5.97;;;;;;;10.69;100.00;96624.41;5083680;28;20034;-78
2021/08/17 05:49:33;;;;;;;12.73;6.30;;;;;;;10.69;100.00;96626.22;5065797;28;20056;-78
2021/08/17 05:51:58;;;;;;;13.37;6.47;;;;;;;10.73;100.00;96623.16;5079807;28;20068;-78
2021/08/17 05:54:24;;;;;;;13.60;6.33;;;;;;;10.59;100.00;96627.13;5079272;28;20037;-78
2021/08/17 05:56:50;;;;;;;14.30;6.40;;;;;;;10.93;100.00;96618.56;5075910;28;20028;-78
2021/08/17 05:59:16;;;;;;;12.27;5.90;;;;;;;11.14;100.00;96617.41;5065451;28;20370;-78
2021/08/17 06:01:42;;;;;;;13.97;5.90;;;;;;;11.47;98.17;96611.38;5072913;28;20047;-78
2021/08/17 06:04:08;;;;;;;10.60;5.50;;;;;;;11.82;95.54;96606.94;5072442;28;20022;-78
2021/08/17 06:06:33;;;;;;;13.47;6.73;;;;;;;11.86;95.86;96600.41;5069103;28;20039;-78
2021/08/17 06:08:59;;;;;;;10.87;6.27;;;;;;;12.28;94.13;96602.22;5063660;28;20035;-78
2021/08/17 06:11:25;;;;;;;12.30;5.57;;;;;;;12.38;91.68;96596.81;5077835;28;20031;-78
2021/08/17 06:13:51;;;;;;;12.00;6.13;;;;;;;12.55;91.22;96595.84;5075755;28;20108;-78
2021/08/17 06:16:17;;;;;;;9.73;4.80;;;;;;;12.88;91.49;96598.53;5061414;28;20497;-77
2021/08/17 06:18:43;;;;;;;10.07;5.07;;;;;;;12.73;90.34;96596.50;5055903;28;20090;-78
2021/08/17 06:21:09;;;;;;;10.83;5.50;;;;;;;12.55;89.92;96609.03;5058987;28;20037;-78
2021/08/17 06:23:35;;;;;;;10.83;5.07;;;;;;;12.89;89.97;96611.53;5078580;28;20792;-78
2021/08/17 06:26:00;;;;;;;10.13;5.40;;;;;;;13.08;88.19;96620.13;5059126;28;20045;-77
2021/08/17 06:28:27;;;;;;;13.63;4.93;;;;;;;12.81;88.33;96629.16;5062083;28;20389;-77
2021/08/17 06:30:53;;;;;;;10.80;5.53;;;;;;;12.02;92.10;96624.19;5074788;28;20051;-78
2021/08/17 06:33:19;;;;;;;11.10;5.10;;;;;;;11.71;94.04;96636.22;5075962;28;20032;-78
2021/08/17 06:35:45;;;;;;;11.63;5.23;;;;;;;11.77;94.06;96639.06;5068854;28;20029;-78
2021/08/17 06:38:11;;;;;;;9.40;4.63;;;;;;;11.66;93.52;96635.84;5070714;28;20037;-78
2021/08/17 06:40:37;;;;;;;10.40;5.10;;;;;;;11.57;94.97;96637.63;5082741;28;20039;-78
2021/08/17 06:43:03;;;;;;;9.40;5.20;;;;;;;11.66;95.90;96647.19;5081614;28;20074;-77
2021/08/17 06:45:28;;;;;;;9.20;4.70;;;;;;;11.70;95.57;96651.19;5072684;28;20052;-77
2021/08/17 06:47:56;;;;;;;10.67;5.20;;;;;;;11.88;94.29;96648.53;5078510;28;20067;-79
2021/08/17 06:50:21;;;;;;;11.03;5.33;;;;;;;11.73;93.48;96642.13;5087583;28;20044;-78
2021/08/17 06:52:47;;;;;;;11.93;5.23;;;;;;;11.96;93.65;96643.28;5086124;28;20107;-77
2021/08/17 06:55:14;;;;;;;10.83;5.23;;;;;;;11.85;92.64;96654.09;5079917;28;20043;-77
2021/08/17 06:57:40;;;;;;;9.87;4.93;;;;;;;11.97;93.84;96658.13;5080072;28;20519;-78
2021/08/17 07:00:09;;;;;;;8.43;4.80;;;;;;;12.05;93.59;96664.41;5057171;28;20029;-78
2021/08/17 07:02:35;;;;;;;11.17;5.77;;;;;;;11.99;91.60;96660.59;5069056;28;20032;-78
2021/08/17 07:05:03;;;;;;;13.80;5.00;;;;;;;12.01;92.53;96664.72;5077394;28;20029;-77
2021/08/17 07:07:29;;;;;;;10.40;4.57;;;;;;;11.85;90.74;96669.91;5068631;28;20036;-77
2021/08/17 07:09:54;;;;;;;11.43;5.43;;;;;;;11.82;92.80;96672.81;5083315;28;20040;-77
2021/08/17 07:12:20;;;;;;;8.47;5.20;;;;;;;12.02;94.07;96670.81;5063380;28;20020;-78
2021/08/17 07:14:46;;;;;;;9.70;5.00;;;;;;;12.12;91.68;96675.97;5069238;28;20108;-77
2021/08/17 07:17:11;;;;;;;7.60;4.77;;;;;;;12.56;90.42;96673.19;5065554;28;20041;-77
2021/08/17 07:19:37;;;;;;;10.10;5.10;;;;;;;12.94;87.35;96672.59;5065142;28;20012;-77
2021/08/17 07:22:03;;;;;;;9.83;5.33;;;;;;;12.60;86.80;96677.13;5076960;28;20021;-79
2021/08/17 07:24:29;;;;;;;9.30;5.10;;;;;;;12.63;88.34;96669.72;5057362;28;20046;-77
2021/08/17 07:26:55;;;;;;;12.23;4.70;;;;;;;12.85;89.59;96673.56;5088904;28;20016;-76
2021/08/17 07:29:22;;;;;;;9.37;5.03;;;;;;;13.30;86.04;96664.38;5064444;28;20043;-76
2021/08/17 07:31:49;;;;;;;8.33;4.57;;;;;;;14.14;82.24;96660.41;5061257;28;20056;-77
2021/08/17 07:34:15;;;;;;;9.23;5.47;;;;;;;14.49;77.87;96668.06;5056918;28;20025;-77
2021/08/17 07:36:40;;;;;;;8.67;4.50;;;;;;;15.57;73.39;96658.22;5052709;28;20067;-77
2021/08/17 07:39:08;;;;;;;9.60;4.77;;;;;;;14.90;74.61;96659.91;5069006;28;20050;-77
2021/08/17 07:41:34;;;;;;;8.07;4.13;;;;;;;15.68;72.80;96654.31;5081244;28;20054;-77
2021/08/17 07:44:01;;;;;;;8.30;3.93;;;;;;;16.30;69.44;96647.00;5062360;28;20055;-78
2021/08/17 07:46:27;;;;;;;8.57;4.37;;;;;;;14.97;72.37;96666.16;5070310;28;20065;-76
2021/08/17 07:48:53;;;;;;;7.30;3.67;;;;;;;15.39;73.89;96670.13;5074037;28;20032;-78
2021/08/17 07:51:19;;;;;;;7.47;4.60;;;;;;;15.39;72.33;96678.94;5069122;28;20489;-78
2021/08/17 07:53:45;;;;;;;12.73;4.93;;;;;;;15.01;72.95;96664.78;5070078;28;20037;-77
2021/08/17 07:56:11;;;;;;;9.18;5.13;;;;;;;15.86;70.15;96664.59;5070893;28;20062;-77
2021/08/17 07:58:38;;;;;;;10.38;4.82;;;;;;;15.47;70.18;96667.44;5065262;28;20025;-77
2021/08/17 08:01:04;;;;;;;10.18;4.22;;;;;;;14.89;71.89;96674.13;5076534;28;20052;-79
2021/08/17 08:03:30;;;;;;;8.82;5.00;;;;;;;15.02;73.00;96675.22;5046377;28;20401;-78
2021/08/17 08:05:56;;;;;;;12.45;5.65;;;;;;;14.09;76.51;96667.22;5078302;28;20040;-77
2021/08/17 08:08:21;;;;;;;12.40;5.53;;;;;;;15.68;71.41;96664.13;5058056;28;20024;-78
2021/08/17 08:10:47;;;;;;;10.10;4.85;;;;;;;16.08;68.10;96664.69;5059568;28;20025;-78
2021/08/17 08:13:13;;;;;;;9.10;4.13;;;;;;;15.47;70.13;96676.19;5080691;28;20505;-81
2021/08/17 08:15:39;;;;;;;8.00;4.57;;;;;;;16.30;69.14;96670.91;5056281;28;20056;-78
2021/08/17 08:18:06;;;;;;;9.32;4.40;;;;;;;15.76;68.93;96671.97;5062364;28;20551;-78
2021/08/17 08:20:32;;;;;;;11.10;5.07;;;;;;;15.44;68.83;96684.50;5072425;28;20036;-78
2021/08/17 08:22:58;;;;;;;9.55;4.47;;;;;;;15.54;68.85;96673.66;5062442;28;20089;-78
2021/08/17 08:25:25;;;;;;;10.15;5.38;;;;;;;14.87;70.67;96674.31;5072947;28;20033;-78
2021/08/17 08:27:50;;;;;;;7.63;4.22;;;;;;;14.83;68.82;96665.91;5056464;28;20020;-78
2021/08/17 08:30:16;;;;;;;8.43;4.18;;;;;;;15.51;68.22;96669.53;5069376;28;20081;-78
2021/08/17 08:32:43;;;;;;;10.10;6.30;;;;;;;16.91;63.40;96666.16;5077094;28;20047;-78
2021/08/17 08:35:11;;;;;;;9.50;4.05;;;;;;;17.12;64.02;96668.81;5083306;28;20021;-78
2021/08/17 08:37:37;;;;;;;8.02;4.60;;;;;;;18.32;58.67;96653.75;5072183;28;20043;-78
2021/08/17 08:40:05;;;;;;;7.43;4.28;;;;;;;18.43;60.03;96655.84;5072143;28;20094;-79
2021/08/17 08:42:31;;;;;;;9.80;4.18;;;;;;;18.62;60.19;96651.63;5053500;28;20533;-78
2021/08/17 08:44:57;;;;;;;9.20;4.82;;;;;;;17.48;60.44;96653.81;5079217;28;20036;-78
2021/08/17 08:47:23;;;;;;;9.57;4.45;;;;;;;17.03;62.11;96653.19;5079079;28;20025;-78
2021/08/17 08:49:51;;;;;;;8.43;4.10;;;;;;;17.54;60.98;96640.56;5059686;28;20040;-79
2021/08/17 08:52:18;;;;;;;8.27;4.03;;;;;;;19.11;55.80;96636.41;5077067;28;20070;-78
2021/08/17 08:54:44;;;;;;;7.47;4.28;;;;;;;19.31;54.53;96645.25;5085410;28;20024;-79
2021/08/17 08:57:10;;;;;;;7.00;3.72;;;;;;;19.26;55.55;96645.88;5070705;28;20054;-79
2021/08/17 08:59:36;;;;;;;7.80;4.10;;;;;;;17.76;59.16;96659.97;5072408;28;20032;-77
2021/08/17 09:02:12;;;;;;;8.93;4.07;;;;;;;17.28;59.50;96657.13;5088824;28;20047;-78
2021/08/17 09:04:48;;;;;;;8.45;4.35;;;;;;;17.10;60.24;96659.38;5076974;28;20463;-79
2021/08/17 09:07:14;;;;;;;8.23;4.70;;;;;;;18.39;54.57;96643.97;5061644;28;20040;-78
2021/08/17 09:09:39;;;;;;;6.35;3.45;;;;;;;18.35;54.41;96643.53;5067355;28;20032;-79
2021/08/17 09:12:10;;;;;;;7.55;3.53;;;;;;;18.48;54.69;96647.28;5087911;28;20039;-78
2021/08/17 09:14:40;;;;;;;7.63;4.03;;;;;;;19.18;51.54;96640.75;5060735;28;20037;-78
2021/08/17 09:17:11;;;;;;;7.20;3.47;;;;;;;18.75;51.74;96640.25;5086795;28;20025;-79
2021/08/17 09:19:44;;;;;;;7.85;4.10;;;;;;;20.67;46.60;96641.97;5084868;28;20059;-80
2021/08/17 09:22:17;;;;;;;7.10;3.42;;;;;;;20.88;47.97;96638.97;5073728;28;20462;-79
2021/08/17 09:24:47;;;;;;;7.78;3.83;;;;;;;20.57;46.66;96638.94;5061145;28;20477;-78
2021/08/17 09:27:16;;;;;;;8.35;3.75;;;;;;;21.17;46.63;96634.91;5092968;28;20062;-79
2021/08/17 09:29:43;;;;;;;7.40;3.78;;;;;;;;;;5073137;28;20043;-79
2021/08/17 09:32:25;;;;;;;5.88;3.25;;;;;;;20.41;46.54;96633.00;5068013;28;20032;-77
2021/08/17 09:34:54;;;;;;;5.22;2.83;;;;;;;21.30;44.60;96636.66;5072554;28;20063;-78
2021/08/17 09:37:25;;;;;;;6.97;4.00;;;;;;;20.31;46.06;96634.47;5058503;28;20113;-79
2021/08/17 09:39:54;;;;;;;8.48;3.75;;;;;;;20.93;46.16;96636.50;5073514;28;20036;-78
2021/08/17 09:42:34;;;;;;;6.95;3.83;;;;;;;18.83;50.00;96646.19;5075201;28;20044;-78
2021/08/17 09:45:09;;;;;;;6.97;3.97;;;;;;;20.17;47.73;96628.38;5072090;28;20091;-79
2021/08/17 09:47:38;;;;;;;8.25;3.85;;;;;;;21.18;46.50;96630.38;5072241;28;20040;-78
2021/08/17 09:50:19;;;;;;;8.68;3.97;;;;;;;21.72;43.28;96618.22;5066648;28;20036;-78
2021/08/17 09:52:47;;;;;;;8.27;3.92;;;;;;;21.97;43.04;96618.22;5075776;28;20032;-78
2021/08/17 09:55:21;;;;;;;6.72;3.65;;;;;;;21.54;42.25;96631.56;5056963;28;20039;-78
2021/08/17 09:57:48;;;;;;;5.72;3.20;;;;;;;20.26;44.96;96624.44;5072047;28;20095;-78
2021/08/17 10:00:16;;;;;;;5.65;3.33;;;;;;;20.31;42.33;96621.13;5060923;28;20047;-78
2021/08/17 10:02:46;;;;;;;8.00;3.65;;;;;;;21.65;42.18;96612.94;5074562;28;20037;-78
2021/08/17 10:05:13;;;;;;;7.40;3.55;;;;;;;21.71;41.68;96600.53;5068795;28;20370;-79
2021/08/17 10:07:40;;;;;;;7.25;3.50;;;;;;;22.28;42.64;96598.50;5060706;28;20034;-78
2021/08/17 10:10:07;;;;;;;9.15;4.22;;;;;;;21.88;41.88;96598.91;5079345;28;20027;-78
2021/08/17 10:12:33;;;;;;;7.18;3.53;;;;;;;20.48;44.23;96603.59;5081894;28;20399;-78
2021/08/17 10:14:59;;;;;;;7.03;3.67;;;;;;;21.23;42.94;96603.81;5057880;28;20047;-79
2021/08/17 10:17:24;;;;;;;7.15;3.40;;;;;;;20.67;46.03;96594.69;5059020;28;20029;-78
2021/08/17 10:19:50;;;;;;;7.22;3.88;;;;;;;20.42;42.62;96597.25;5063617;28;20128;-79
2021/08/17 10:22:18;;;;;;;7.40;3.67;;;;;;;20.28;44.40;96605.53;5082567;28;20035;-78
2021/08/17 10:24:48;;;;;;;8.45;4.03;;;;;;;20.51;44.61;96597.84;5091282;28;20038;-79
2021/08/17 10:27:14;;;;;;;7.75;4.20;;;;;;;21.57;43.17;96588.31;5070617;28;20029;-78
2021/08/17 10:30:02;;;;;;;6.78;3.83;;;;;;;21.36;43.89;96594.88;5059729;28;20021;-78
2021/08/17 10:32:42;;;;;;;5.47;3.33;;;;;;;21.60;41.99;96582.53;5081984;28;20028;-79
2021/08/17 10:35:50;;;;;;;8.98;4.68;;;;;;;21.07;42.84;96593.63;5068227;28;20035;-78
2021/08/17 10:38:15;;;;;;;7.55;4.40;;;;;;;20.19;44.60;96591.59;5091106;28;20036;-78
2021/08/17 10:40:53;;;;;;;7.57;3.95;;;;;;;19.91;45.86;96595.34;5069290;28;20053;-79
2021/08/17 10:43:31;;;;;;;9.63;4.00;;;;;;;19.06;48.29;96597.84;5078982;28;20032;-78
2021/08/17 10:46:06;;;;;;;8.27;4.78;;;;;;;19.16;48.66;96597.47;5070582;28;20040;-79
2021/08/17 10:48:44;;;;;;;8.32;4.25;;;;;;;19.76;46.86;96592.94;5079319;28;20032;-79
2021/08/17 10:51:20;;;;;;;8.88;4.93;;;;;;;19.68;47.43;96589.66;5088798;28;20488;-80
2021/08/17 10:53:47;;;;;;;8.20;4.97;;;;;;;19.66;47.34;96586.41;5082362;28;20047;-79
2021/08/17 10:56:13;;;;;;;10.88;6.38;;;;;;;19.47;44.63;96580.81;5069698;28;20445;-79
2021/08/17 10:58:45;;;;;;;7.53;3.95;;;;;;;19.68;42.90;96576.31;5074460;28;20032;-79
2021/08/17 11:01:11;;;;;;;8.30;4.45;;;;;;;19.78;43.14;96580.22;5069660;28;20043;-79
2021/08/17 11:03:50;;;;;;;7.28;4.53;;;;;;;19.06;44.78;96581.03;5072250;28;20032;-79
2021/08/17 11:06:44;;;;;;;7.32;3.80;;;;;;;19.40;44.95;96564.00;5060108;28;20031;-79
2021/08/17 11:09:25;;;;;;;7.70;3.78;;;;;;;20.88;39.94;96553.44;5072026;28;20034;-80
2021/08/17 11:12:05;;;;;;;7.60;4.07;;;;;;;20.45;41.85;96562.09;5083709;28;20163;-79
2021/08/17 11:14:35;;;;;;;7.53;3.60;;;;;;;21.26;41.62;96559.72;5071878;28;20492;-80
2021/08/17 11:17:04;;;;;;;8.93;4.18;;;;;;;20.64;41.09;96564.91;5077607;28;20477;-80
2021/08/17 11:19:35;;;;;;;9.00;4.43;;;;;;;20.22;42.27;96575.13;5077122;28;20044;-80
2021/08/17 11:22:07;;;;;;;9.30;4.57;;;;;;;20.79;41.87;96568.13;5074716;28;20036;-79
2021/08/17 11:24:34;;;;;;;8.40;3.78;;;;;;;21.33;38.88;96563.19;5054560;28;20033;-79
2021/08/17 11:27:06;;;;;;;9.10;4.53;;;;;;;21.50;40.34;96552.78;5082701;28;20098;-79